^^
Your Local Weather - Clay, NY Station Historical Data
Daily Summary for February 24, 2017 Units:  English    Metric   Both
« Previous Day
Next Day »
Daily Weekly Monthly Yearly Custom
  High: Low: Average:
Temperature: 65.3 °F 37.8 °F 50.5 °F
Dew Point: 53.3 °F 34.8 °F 44.4 °F
Humidity: 93% 58% 81%
Wind Speed: 8.0mph 0.0mph 1.6mph
Wind Gust: 15.0mph - -
Wind- - ESE
Pressure: 29.87 in 29.58 in -
Precipitation: 0.50 in    
Historical Graphs
 
 
Tabular Data for February 24, 2017
Time Temperature Dew Point Pressure Wind Wind Speed Wind Gust Humidity Rainfall Rate (Hourly) solar
00:00 43.1 °F 38.3 °F 29.86 in Calm     83% 0.00 in 0 W/m2
00:06 42.8 °F 38.0 °F 29.85 in Calm     83% 0.00 in 0 W/m2
00:12 42.4 °F 37.9 °F 29.85 in Calm     84% 0.00 in 0 W/m2
00:18 42.0 °F 37.5 °F 29.85 in Calm     84% 0.00 in 0 W/m2
00:24 41.4 °F 37.2 °F 29.85 in Calm   1.0 mph 85% 0.00 in 0 W/m2
00:29 41.0 °F 36.8 °F 29.85 in Calm     85% 0.00 in 0 W/m2
00:36 40.7 °F 36.8 °F 29.85 in Calm     86% 0.00 in 0 W/m2
00:42 40.4 °F 36.5 °F 29.85 in Calm     86% 0.00 in 0 W/m2
00:48 40.1 °F 36.5 °F 29.85 in Calm     87% 0.00 in 0 W/m2
00:54 39.7 °F 36.1 °F 29.85 in Calm     87% 0.00 in 0 W/m2
00:59 39.4 °F 35.9 °F 29.85 in Calm     87% 0.00 in 0 W/m2
01:05 39.3 °F 35.8 °F 29.85 in Calm     87% 0.00 in 0 W/m2
01:12 39.3 °F 36.0 °F 29.86 in Calm     88% 0.00 in 0 W/m2
01:18 39.3 °F 36.0 °F 29.87 in Calm     88% 0.00 in 0 W/m2
01:24 39.3 °F 36.3 °F 29.86 in Calm     89% 0.00 in 0 W/m2
01:30 39.0 °F 35.7 °F 29.85 in Calm     88% 0.00 in 0 W/m2
01:36 38.8 °F 35.6 °F 29.86 in Calm     88% 0.00 in 0 W/m2
01:42 38.6 °F 35.4 °F 29.85 in Calm   1.0 mph 88% 0.00 in 0 W/m2
01:48 38.5 °F 35.5 °F 29.85 in Calm   1.0 mph 89% 0.00 in 0 W/m2
01:53 38.1 °F 35.1 °F 29.85 in Calm     89% 0.00 in 0 W/m2
02:00 37.9 °F 34.9 °F 29.87 in Calm     89% 0.00 in 0 W/m2
02:06 38.0 °F 35.0 °F 29.87 in Calm     89% 0.00 in 0 W/m2
02:12 37.9 °F 35.2 °F 29.87 in Calm     90% 0.00 in 0 W/m2
02:18 37.8 °F 34.8 °F 29.87 in Calm     89% 0.00 in 0 W/m2
02:23 38.0 °F 35.3 °F 29.87 in Calm     90% 0.00 in 0 W/m2
02:29 38.1 °F 35.4 °F 29.86 in Calm     90% 0.00 in 0 W/m2
02:36 38.2 °F 35.5 °F 29.87 in Calm     90% 0.00 in 0 W/m2
02:42 38.5 °F 35.8 °F 29.87 in Calm     90% 0.00 in 0 W/m2
02:48 38.7 °F 36.0 °F 29.86 in Calm     90% 0.00 in 0 W/m2
02:54 38.9 °F 36.2 °F 29.86 in Calm     90% 0.00 in 0 W/m2
03:00 39.0 °F 36.6 °F 29.86 in Calm     91% 0.00 in 0 W/m2
03:06 39.0 °F 36.6 °F 29.86 in Calm     91% 0.00 in 0 W/m2
03:12 39.1 °F 36.7 °F 29.86 in Calm   1.0 mph 91% 0.00 in 0 W/m2
03:18 39.2 °F 36.8 °F 29.85 in Calm   1.0 mph 91% 0.00 in 0 W/m2
03:23 39.4 °F 36.7 °F 29.86 in Calm   1.0 mph 90% 0.00 in 0 W/m2
03:29 39.5 °F 36.8 °F 29.86 in Calm     90% 0.00 in 0 W/m2
03:36 39.8 °F 37.4 °F 29.86 in Calm   2.0 mph 91% 0.00 in 0 W/m2
03:42 40.1 °F 37.4 °F 29.85 in Calm     90% 0.00 in 0 W/m2
03:48 40.2 °F 37.5 °F 29.85 in Calm     90% 0.00 in 0 W/m2
03:53 40.4 °F 37.7 °F 29.85 in Calm   1.0 mph 90% 0.00 in 0 W/m2
04:00 40.4 °F 37.7 °F 29.85 in Calm     90% 0.00 in 0 W/m2
04:06 40.5 °F 37.5 °F 29.85 in Calm   2.0 mph 89% 0.00 in 0 W/m2
04:12 40.3 °F 37.3 °F 29.84 in Calm   2.0 mph 89% 0.00 in 0 W/m2
04:18 40.1 °F 36.8 °F 29.85 in Calm   2.0 mph 88% 0.00 in 0 W/m2
04:24 40.0 °F 36.7 °F 29.85 in Calm     88% 0.00 in 0 W/m2
04:29 39.9 °F 36.6 °F 29.85 in Calm     88% 0.00 in 0 W/m2
04:36 39.7 °F 36.7 °F 29.85 in Calm     89% 0.00 in 0 W/m2
04:42 39.4 °F 36.1 °F 29.85 in Calm     88% 0.00 in 0 W/m2
04:48 39.3 °F 36.3 °F 29.85 in Calm     89% 0.00 in 0 W/m2
04:54 39.3 °F 36.3 °F 29.84 in Calm     89% 0.00 in 0 W/m2
05:00 39.2 °F 36.2 °F 29.84 in Calm     89% 0.00 in 0 W/m2
05:06 39.2 °F 36.2 °F 29.84 in Calm     89% 0.00 in 0 W/m2
05:12 38.9 °F 35.9 °F 29.83 in Calm     89% 0.00 in 0 W/m2
05:18 38.6 °F 35.6 °F 29.84 in Calm     89% 0.00 in 0 W/m2
05:24 38.4 °F 35.4 °F 29.84 in Calm     89% 0.00 in 0 W/m2
05:29 38.2 °F 35.2 °F 29.83 in Calm     89% 0.00 in 0 W/m2
05:36 38.1 °F 35.1 °F 29.83 in Calm     89% 0.00 in 0 W/m2
05:42 38.2 °F 35.5 °F 29.83 in Calm     90% 0.00 in 0 W/m2
05:48 38.1 °F 35.4 °F 29.83 in Calm     90% 0.00 in 0 W/m2
05:53 38.1 °F 35.4 °F 29.82 in Calm     90% 0.00 in 0 W/m2
05:59 38.0 °F 35.3 °F 29.82 in Calm     90% 0.00 in 0 W/m2
06:05 38.0 °F 35.3 °F 29.82 in Calm     90% 0.00 in 0 W/m2
06:12 38.0 °F 35.3 °F 29.82 in Calm     90% 0.00 in 0 W/m2
06:18 38.0 °F 35.3 °F 29.82 in Calm     90% 0.00 in 0 W/m2
06:25 38.3 °F 35.9 °F 29.82 in Calm     91% 0.00 in 0 W/m2
06:32 38.6 °F 36.2 °F 29.81 in Calm   1.0 mph 91% 0.00 in 0 W/m2
06:38 38.8 °F 36.4 °F 29.82 in Calm   1.0 mph 91% 0.00 in 0 W/m2
06:43 38.9 °F 36.5 °F 29.81 in Calm     91% 0.00 in 0 W/m2
06:50 39.1 °F 36.7 °F 29.80 in Calm     91% 0.00 in 0 W/m2
06:56 39.2 °F 36.8 °F 29.80 in Calm     91% 0.00 in 0 W/m2
07:02 39.2 °F 36.8 °F 29.80 in Calm   2.0 mph 91% 0.00 in 9 W/m2
07:08 39.3 °F 36.9 °F 29.80 in Calm   2.0 mph 91% 0.00 in 11 W/m2
07:13 39.3 °F 36.6 °F 29.80 in Calm     90% 0.00 in 9 W/m2
07:20 39.5 °F 36.8 °F 29.81 in Calm     90% 0.00 in 7 W/m2
07:26 39.6 °F 36.9 °F 29.81 in Calm     90% 0.00 in 5 W/m2
07:32 39.7 °F 37.0 °F 29.82 in Calm     90% 0.00 in 5 W/m2
07:38 39.9 °F 37.5 °F 29.82 in Calm   1.0 mph 91% 0.11 in 0 W/m2
07:43 40.0 °F 37.6 °F 29.82 in ENE 1.0 mph 2.0 mph 91% 0.65 in 0 W/m2
07:50 40.0 °F 37.6 °F 29.81 in East 1.0 mph 1.0 mph 91% 0.25 in 5 W/m2
07:55 40.1 °F 37.7 °F 29.82 in ESE 1.0 mph 1.0 mph 91% 0.23 in 0 W/m2
08:02 40.3 °F 37.9 °F 29.81 in SE 1.0 mph 2.0 mph 91% 0.38 in 0 W/m2
08:08 40.3 °F 37.9 °F 29.80 in East 1.0 mph 2.0 mph 91% 0.42 in 7 W/m2
08:14 40.3 °F 38.2 °F 29.80 in East 1.0 mph 3.0 mph 92% 0.26 in 9 W/m2
08:20 40.4 °F 38.3 °F 29.79 in East 1.0 mph 2.0 mph 92% 0.16 in 7 W/m2
08:25 40.5 °F 38.4 °F 29.80 in SSE 2.0 mph 2.0 mph 92% 0.33 in 7 W/m2
08:32 40.7 °F 38.6 °F 29.80 in SSE 1.0 mph 2.0 mph 92% 0.20 in 9 W/m2
08:38 40.7 °F 38.6 °F 29.80 in NE 1.0 mph 3.0 mph 92% 0.12 in 7 W/m2
08:44 40.9 °F 38.8 °F 29.79 in ENE 1.0 mph 3.0 mph 92% 2.85 in 5 W/m2
08:55 41.4 °F 39.5 °F 29.79 in ESE 2.0 mph 4.0 mph 93% 0.23 in 14 W/m2
09:02 41.7 °F 39.8 °F 29.80 in SE 2.0 mph 2.0 mph 93% 0.28 in 37 W/m2
09:08 41.9 °F 40.0 °F 29.80 in SE 1.0 mph 2.0 mph 93% 0.10 in 26 W/m2
09:14 42.1 °F 40.2 °F 29.79 in ESE 1.0 mph 4.0 mph 93% 0.09 in 46 W/m2
09:20 42.2 °F 40.3 °F 29.79 in SE 1.0 mph 1.0 mph 93% 0.05 in 53 W/m2
09:25 42.4 °F 40.5 °F 29.79 in Calm   1.0 mph 93% 0.00 in 58 W/m2
09:32 42.6 °F 40.7 °F 29.79 in Calm     93% 0.00 in 60 W/m2
09:38 42.8 °F 40.9 °F 29.79 in Calm   1.0 mph 93% 0.00 in 49 W/m2
09:44 42.9 °F 41.0 °F 29.79 in Calm     93% 0.00 in 54 W/m2
09:50 43.1 °F 41.2 °F 29.79 in Calm     93% 0.00 in 114 W/m2
09:55 43.5 °F 41.6 °F 29.79 in Calm     93% 0.00 in 130 W/m2
10:02 43.8 °F 41.9 °F 29.79 in Calm     93% 0.00 in 142 W/m2
10:08 43.9 °F 42.0 °F 29.79 in ENE 1.0 mph 3.0 mph 93% 0.00 in 153 W/m2
10:14 44.0 °F 42.1 °F 29.79 in East 1.0 mph 2.0 mph 93% 0.00 in 134 W/m2
10:20 44.1 °F 42.2 °F 29.79 in ENE 1.0 mph 2.0 mph 93% 0.00 in 107 W/m2
10:25 44.1 °F 42.2 °F 29.79 in East 1.0 mph 3.0 mph 93% 0.00 in 105 W/m2
10:32 44.4 °F 42.5 °F 29.79 in ESE 1.0 mph 1.0 mph 93% 0.00 in 148 W/m2
10:38 44.8 °F 42.9 °F 29.78 in ESE 1.0 mph 3.0 mph 93% 0.00 in 229 W/m2
10:43 45.4 °F 43.5 °F 29.78 in ESE 1.0 mph 2.0 mph 93% 0.00 in 285 W/m2
10:49 45.8 °F 43.9 °F 29.77 in East 1.0 mph 3.0 mph 93% 0.00 in 355 W/m2
10:56 45.7 °F 43.8 °F 29.77 in East 2.0 mph 3.0 mph 93% 0.00 in 225 W/m2
11:02 46.1 °F 44.2 °F 29.77 in NE 1.0 mph 5.0 mph 93% 0.00 in 100 W/m2
11:08 46.1 °F 43.9 °F 29.77 in ENE 1.0 mph 5.0 mph 92% 0.00 in 127 W/m2
11:14 46.2 °F 44.0 °F 29.77 in ENE 1.0 mph 3.0 mph 92% 0.00 in 91 W/m2
11:19 46.1 °F 43.9 °F 29.77 in ENE 1.0 mph 1.0 mph 92% 0.00 in 83 W/m2
11:26 45.8 °F 43.6 °F 29.77 in NNW 2.0 mph 4.0 mph 92% 0.00 in 69 W/m2
11:32 45.4 °F 43.2 °F 29.77 in NNE 3.0 mph 3.0 mph 92% 0.00 in 63 W/m2
11:38 45.0 °F 42.8 °F 29.76 in NE 3.0 mph 4.0 mph 92% 0.00 in 77 W/m2
11:43 44.7 °F 42.2 °F 29.76 in East 2.0 mph 6.0 mph 91% 0.00 in 56 W/m2
11:46 44.6 °F 42.4 °F 29.76 in ENE 2.0 mph 6.0 mph 92% 0.00 in 69 W/m2
11:52 44.7 °F 42.5 °F 29.74 in ENE 3.0 mph 5.0 mph 92% 0.00 in 211 W/m2
11:58 45.3 °F 43.1 °F 29.74 in ESE 3.0 mph 8.0 mph 92% 0.00 in 211 W/m2
12:04 45.8 °F 43.6 °F 29.73 in East 3.0 mph 3.0 mph 92% 0.00 in 221 W/m2
12:10 46.4 °F 44.2 °F 29.73 in East 4.0 mph 4.0 mph 92% 0.00 in 283 W/m2
12:15 47.6 °F 45.4 °F 29.72 in ESE 5.0 mph 8.0 mph 92% 0.00 in 512 W/m2
12:22 48.7 °F 46.2 °F 29.71 in ENE 5.0 mph 7.0 mph 91% 0.00 in 519 W/m2
12:28 50.1 °F 47.0 °F 29.71 in SE 6.0 mph 7.0 mph 89% 0.00 in 388 W/m2
12:34 51.2 °F 48.1 °F 29.71 in SE 5.0 mph 6.0 mph 89% 0.00 in 376 W/m2
12:46 52.5 °F 48.1 °F 29.70 in ESE 4.0 mph 5.0 mph 85% 0.00 in 487 W/m2
12:52 52.8 °F 48.4 °F 29.70 in ESE 4.0 mph 4.0 mph 85% 0.00 in 381 W/m2
12:58 53.1 °F 48.7 °F 29.70 in SSE 3.0 mph 4.0 mph 85% 0.00 in 387 W/m2
13:04 53.6 °F 48.9 °F 29.69 in ENE 2.0 mph 7.0 mph 84% 0.00 in 318 W/m2
13:09 53.9 °F 48.9 °F 29.69 in SSE 3.0 mph 3.0 mph 83% 0.00 in 448 W/m2
13:16 54.7 °F 50.0 °F 29.68 in East 3.0 mph 3.0 mph 84% 0.00 in 420 W/m2
13:22 55.1 °F 49.4 °F 29.68 in NE 2.0 mph 4.0 mph 81% 0.00 in 290 W/m2
13:28 55.0 °F 49.6 °F 29.68 in NE 2.0 mph 4.0 mph 82% 0.00 in 246 W/m2
13:34 55.8 °F 50.1 °F 29.68 in ENE 3.0 mph 3.0 mph 81% 0.00 in 596 W/m2
13:40 57.4 °F 50.6 °F 29.68 in East 2.0 mph 2.0 mph 78% 0.00 in 568 W/m2
13:45 57.6 °F 50.8 °F 29.68 in ENE 2.0 mph 2.0 mph 78% 0.00 in 563 W/m2
13:52 57.7 °F 51.2 °F 29.67 in NNE 2.0 mph 4.0 mph 79% 0.00 in 550 W/m2
13:58 58.9 °F 52.1 °F 29.67 in NNE 2.0 mph 4.0 mph 78% 0.00 in 606 W/m2
14:04 58.6 °F 51.4 °F 29.67 in SE 2.0 mph 5.0 mph 77% 0.00 in 290 W/m2
14:10 58.5 °F 51.0 °F 29.66 in ENE 3.0 mph 3.0 mph 76% 0.00 in 279 W/m2
14:16 58.8 °F 50.9 °F 29.66 in ENE 3.0 mph 3.0 mph 75% 0.00 in 619 W/m2
14:22 59.4 °F 52.2 °F 29.66 in NNE 3.0 mph 3.0 mph 77% 0.00 in 239 W/m2
14:28 59.8 °F 51.9 °F 29.66 in NNE 3.0 mph 6.0 mph 75% 0.00 in 506 W/m2
14:33 60.2 °F 51.1 °F 29.66 in ENE 3.0 mph 3.0 mph 72% 0.00 in 476 W/m2
14:40 60.0 °F 51.7 °F 29.66 in North 2.0 mph 3.0 mph 74% 0.00 in 471 W/m2
14:46 60.4 °F 51.7 °F 29.66 in NNE 3.0 mph 3.0 mph 73% 0.00 in 438 W/m2
14:52 61.0 °F 51.9 °F 29.66 in ENE 2.0 mph 2.0 mph 72% 0.00 in 396 W/m2
14:58 61.6 °F 52.1 °F 29.65 in NE 1.0 mph 4.0 mph 71% 0.00 in 390 W/m2
15:03 60.9 °F 52.2 °F 29.65 in ENE 2.0 mph 2.0 mph 73% 0.00 in 248 W/m2
15:10 60.8 °F 52.5 °F 29.65 in ENE 2.0 mph 2.0 mph 74% 0.00 in 373 W/m2
15:16 61.0 °F 51.9 °F 29.65 in North 2.0 mph 3.0 mph 72% 0.00 in 304 W/m2
15:22 61.5 °F 52.0 °F 29.65 in ENE 2.0 mph 2.0 mph 71% 0.00 in 329 W/m2
15:28 61.6 °F 52.5 °F 29.65 in NE 2.0 mph 2.0 mph 72% 0.00 in 195 W/m2
15:34 61.6 °F 52.1 °F 29.65 in NE 2.0 mph 3.0 mph 71% 0.00 in 381 W/m2
15:40 61.8 °F 52.3 °F 29.65 in NE 2.0 mph 3.0 mph 71% 0.00 in 153 W/m2
15:45 61.9 °F 52.8 °F 29.65 in NNE 2.0 mph 3.0 mph 72% 0.00 in 176 W/m2
15:52 61.9 °F 53.1 °F 29.65 in ENE 1.0 mph 2.0 mph 73% 0.00 in 118 W/m2
15:58 61.7 °F 52.2 °F 29.65 in ENE 1.0 mph 2.0 mph 71% 0.00 in 107 W/m2
16:04 61.7 °F 52.6 °F 29.64 in ENE 1.0 mph 1.0 mph 72% 0.00 in 120 W/m2
16:10 61.6 °F 52.5 °F 29.64 in ENE 1.0 mph 1.0 mph 72% 0.00 in 121 W/m2
16:16 61.7 °F 53.0 °F 29.64 in Calm   2.0 mph 73% 0.00 in 86 W/m2
16:22 61.5 °F 52.4 °F 29.64 in ENE 1.0 mph 1.0 mph 72% 0.00 in 58 W/m2
16:28 61.2 °F 52.8 °F 29.64 in ENE 1.0 mph 1.0 mph 74% 0.00 in 60 W/m2
16:34 60.9 °F 52.9 °F 29.63 in Calm     75% 0.00 in 63 W/m2
16:39 60.3 °F 53.1 °F 29.63 in Calm     77% 0.00 in 70 W/m2
16:46 60.0 °F 53.1 °F 29.63 in ENE 1.0 mph 1.0 mph 78% 0.00 in 58 W/m2
16:52 59.6 °F 53.1 °F 29.63 in Calm   1.0 mph 79% 0.00 in 46 W/m2
16:58 59.5 °F 53.0 °F 29.63 in Calm   1.0 mph 79% 0.00 in 46 W/m2
17:03 59.7 °F 52.8 °F 29.63 in Calm     78% 0.00 in 51 W/m2
17:09 60.5 °F 53.3 °F 29.62 in Calm   2.0 mph 77% 0.00 in 49 W/m2
17:16 60.5 °F 53.3 °F 29.62 in ENE 1.0 mph 2.0 mph 77% 0.00 in 44 W/m2
17:22 60.2 °F 53.0 °F 29.62 in ENE 1.0 mph 1.0 mph 77% 0.00 in 37 W/m2
17:28 59.9 °F 53.0 °F 29.62 in Calm   1.0 mph 78% 0.00 in 28 W/m2
17:34 59.7 °F 52.8 °F 29.62 in Calm     78% 0.00 in 18 W/m2
17:40 59.2 °F 52.7 °F 29.62 in Calm     79% 0.00 in 7 W/m2
17:45 58.7 °F 52.5 °F 29.62 in Calm     80% 0.00 in 0 W/m2
17:52 58.2 °F 52.4 °F 29.62 in Calm     81% 0.00 in 0 W/m2
17:58 58.1 °F 52.0 °F 29.63 in Calm     80% 0.00 in 0 W/m2
18:03 57.8 °F 51.7 °F 29.63 in Calm     80% 0.00 in 0 W/m2
18:10 57.1 °F 51.3 °F 29.63 in Calm     81% 0.00 in 0 W/m2
18:16 56.4 °F 51.0 °F 29.63 in Calm     82% 0.00 in 0 W/m2
18:22 56.0 °F 50.9 °F 29.63 in Calm     83% 0.00 in 0 W/m2
18:28 55.9 °F 51.1 °F 29.63 in Calm   1.0 mph 84% 0.00 in 0 W/m2
18:33 56.1 °F 51.3 °F 29.62 in Calm     84% 0.00 in 0 W/m2
18:40 56.2 °F 51.1 °F 29.62 in Calm     83% 0.00 in 0 W/m2
18:46 56.5 °F 50.7 °F 29.62 in Calm     81% 0.00 in 0 W/m2
18:52 57.6 °F 50.8 °F 29.62 in Calm     78% 0.00 in 0 W/m2
18:58 58.4 °F 50.5 °F 29.62 in South 1.0 mph 2.0 mph 75% 0.00 in 0 W/m2
19:03 59.1 °F 50.5 °F 29.62 in South 1.0 mph 1.0 mph 73% 0.00 in 0 W/m2
19:09 60.9 °F 50.7 °F 29.62 in South 1.0 mph 3.0 mph 69% 0.00 in 0 W/m2
19:16 61.7 °F 50.6 °F 29.62 in SSE 2.0 mph 3.0 mph 67% 0.00 in 0 W/m2
19:22 62.5 °F 50.6 °F 29.62 in South 1.0 mph 3.0 mph 65% 0.00 in 0 W/m2
19:28 64.4 °F 50.7 °F 29.62 in South 3.0 mph 6.0 mph 61% 0.00 in 0 W/m2
19:33 65.3 °F 50.6 °F 29.62 in SSE 3.0 mph 6.0 mph 59% 0.00 in 0 W/m2
19:40 65.1 °F 50.0 °F 29.62 in South 2.0 mph 4.0 mph 58% 0.00 in 0 W/m2
19:46 65.3 °F 50.1 °F 29.62 in SSE 3.0 mph 7.0 mph 58% 0.00 in 0 W/m2
19:52 65.0 °F 49.9 °F 29.62 in SSE 2.0 mph 5.0 mph 58% 0.00 in 0 W/m2
19:58 63.9 °F 49.7 °F 29.62 in SSE 1.0 mph 5.0 mph 60% 0.00 in 0 W/m2
20:03 62.7 °F 49.5 °F 29.62 in SSE 1.0 mph 1.0 mph 62% 0.00 in 0 W/m2
20:10 61.2 °F 49.3 °F 29.63 in Calm     65% 0.00 in 0 W/m2
20:15 60.0 °F 49.4 °F 29.63 in Calm     68% 0.00 in 0 W/m2
20:22 59.4 °F 49.2 °F 29.63 in South 1.0 mph 3.0 mph 69% 0.00 in 0 W/m2
20:28 60.4 °F 49.4 °F 29.63 in SSE 2.0 mph 5.0 mph 67% 0.00 in 0 W/m2
20:33 62.2 °F 49.9 °F 29.62 in SSE 3.0 mph 3.0 mph 64% 0.00 in 0 W/m2
20:39 63.6 °F 49.9 °F 29.63 in South 3.0 mph 3.0 mph 61% 0.00 in 0 W/m2
20:46 64.2 °F 50.0 °F 29.63 in SSE 3.0 mph 3.0 mph 60% 0.00 in 0 W/m2
20:52 64.6 °F 49.9 °F 29.63 in South 3.0 mph 3.0 mph 59% 0.00 in 0 W/m2
20:58 64.6 °F 49.9 °F 29.63 in South 2.0 mph 5.0 mph 59% 0.00 in 0 W/m2
21:04 64.8 °F 50.1 °F 29.63 in South 3.0 mph 5.0 mph 59% 0.00 in 0 W/m2
21:10 64.8 °F 50.1 °F 29.62 in South 3.0 mph 6.0 mph 59% 0.00 in 0 W/m2
21:15 64.9 °F 50.2 °F 29.62 in South 3.0 mph 6.0 mph 59% 0.00 in 0 W/m2
21:22 64.9 °F 50.2 °F 29.62 in SSE 4.0 mph 6.0 mph 59% 0.00 in 0 W/m2
21:28 65.3 °F 50.6 °F 29.62 in South 5.0 mph 6.0 mph 59% 0.00 in 0 W/m2
21:34 65.2 °F 50.5 °F 29.62 in SSE 5.0 mph 5.0 mph 59% 0.00 in 0 W/m2
21:40 65.2 °F 51.0 °F 29.62 in SSW 4.0 mph 4.0 mph 60% 0.00 in 0 W/m2
21:45 65.1 °F 50.9 °F 29.62 in SSW 4.0 mph 8.0 mph 60% 0.00 in 0 W/m2
21:52 65.2 °F 51.0 °F 29.62 in SSE 5.0 mph 5.0 mph 60% 0.00 in 0 W/m2
21:58 65.1 °F 50.9 °F 29.61 in South 4.0 mph 5.0 mph 60% 0.00 in 0 W/m2
22:04 65.0 °F 51.2 °F 29.61 in South 5.0 mph 6.0 mph 61% 0.00 in 0 W/m2
22:10 65.1 °F 51.3 °F 29.60 in SSE 6.0 mph 8.0 mph 61% 0.00 in 0 W/m2
22:15 65.2 °F 51.0 °F 29.60 in SE 6.0 mph 8.0 mph 60% 0.00 in 0 W/m2
22:22 65.1 °F 50.9 °F 29.60 in SSW 7.0 mph 12.0 mph 60% 0.00 in 0 W/m2
22:28 65.0 °F 51.2 °F 29.60 in SSE 7.0 mph 12.0 mph 61% 0.00 in 0 W/m2
22:34 64.7 °F 50.9 °F 29.60 in South 6.0 mph 7.0 mph 61% 0.00 in 0 W/m2
22:40 64.9 °F 51.1 °F 29.60 in SSE 6.0 mph 7.0 mph 61% 0.00 in 0 W/m2
22:45 64.9 °F 51.1 °F 29.59 in South 7.0 mph 7.0 mph 61% 0.00 in 0 W/m2
22:52 64.7 °F 51.4 °F 29.59 in South 7.0 mph 7.0 mph 62% 0.00 in 0 W/m2
22:58 64.6 °F 51.3 °F 29.59 in SSE 7.0 mph 10.0 mph 62% 0.00 in 0 W/m2
23:06 64.5 °F 51.2 °F 29.58 in SSE 7.0 mph 10.0 mph 62% 0.00 in 0 W/m2
23:12 64.4 °F 51.1 °F 29.58 in South 7.0 mph 14.0 mph 62% 0.00 in 0 W/m2
23:18 64.3 °F 51.4 °F 29.58 in SE 7.0 mph 14.0 mph 63% 0.00 in 0 W/m2
23:24 64.3 °F 51.4 °F 29.58 in South 7.0 mph 9.0 mph 63% 0.00 in 0 W/m2
23:30 64.2 °F 51.3 °F 29.58 in South 8.0 mph 8.0 mph 63% 0.00 in 0 W/m2
23:36 64.0 °F 51.1 °F 29.58 in South 8.0 mph 12.0 mph 63% 0.00 in 0 W/m2
23:42 63.9 °F 51.1 °F 29.58 in SSW 8.0 mph 8.0 mph 63% 0.00 in 0 W/m2
23:48 63.8 °F 51.4 °F 29.58 in South 8.0 mph 9.0 mph 64% 0.00 in 0 W/m2
23:54 63.6 °F 51.2 °F 29.58 in SSW 8.0 mph 15.0 mph 64% 0.00 in 0 W/m2
Country Meadow, Clay, NY, USA
Compliments of Weather Underground - 2 mb